sensor_id;sensor_type;location;lat;lon;timestamp;P1;durP1;ratioP1;P2;durP2;ratioP2
64682;SDS011;51107;47.652;19.016;2022-11-04T00:02:17;8.68;;;4.57;;
64682;SDS011;51107;47.652;19.016;2022-11-04T00:04:45;7.32;;;4.05;;
64682;SDS011;51107;47.652;19.016;2022-11-04T00:07:16;11.32;;;4.05;;
64682;SDS011;51107;47.652;19.016;2022-11-04T00:10:03;7.43;;;4.10;;
64682;SDS011;51107;47.652;19.016;2022-11-04T00:12:32;8.55;;;4.18;;
64682;SDS011;51107;47.652;19.016;2022-11-04T00:15:00;13.25;;;3.75;;
64682;SDS011;51107;47.652;19.016;2022-11-04T00:17:48;6.85;;;4.68;;
64682;SDS011;51107;47.652;19.016;2022-11-04T00:20:16;8.35;;;4.12;;
64682;SDS011;51107;47.652;19.016;2022-11-04T00:23:03;6.47;;;3.97;;
64682;SDS011;51107;47.652;19.016;2022-11-04T00:25:50;6.87;;;3.55;;
64682;SDS011;51107;47.652;19.016;2022-11-04T00:28:37;9.27;;;4.85;;
64682;SDS011;51107;47.652;19.016;2022-11-04T00:31:12;8.73;;;3.55;;
64682;SDS011;51107;47.652;19.016;2022-11-04T00:33:58;7.78;;;4.68;;
64682;SDS011;51107;47.652;19.016;2022-11-04T00:36:27;10.55;;;5.15;;
64682;SDS011;51107;47.652;19.016;2022-11-04T00:38:55;5.55;;;3.78;;
64682;SDS011;51107;47.652;19.016;2022-11-04T00:41:23;7.00;;;4.80;;
64682;SDS011;51107;47.652;19.016;2022-11-04T00:43:59;7.05;;;4.37;;
64682;SDS011;51107;47.652;19.016;2022-11-04T00:48:59;7.80;;;3.67;;
64682;SDS011;51107;47.652;19.016;2022-11-04T00:51:28;7.75;;;4.25;;
64682;SDS011;51107;47.652;19.016;2022-11-04T00:53:56;5.93;;;3.35;;
64682;SDS011;51107;47.652;19.016;2022-11-04T00:56:24;8.57;;;4.82;;
64682;SDS011;51107;47.652;19.016;2022-11-04T00:58:53;7.53;;;3.35;;
64682;SDS011;51107;47.652;19.016;2022-11-04T01:01:21;12.55;;;4.03;;
64682;SDS011;51107;47.652;19.016;2022-11-04T01:03:51;6.68;;;3.65;;
64682;SDS011;51107;47.652;19.016;2022-11-04T01:06:21;8.07;;;4.50;;
64682;SDS011;51107;47.652;19.016;2022-11-04T01:08:54;6.03;;;4.22;;
64682;SDS011;51107;47.652;19.016;2022-11-04T01:11:26;9.65;;;4.70;;
64682;SDS011;51107;47.652;19.016;2022-11-04T01:13:56;7.37;;;4.35;;
64682;SDS011;51107;47.652;19.016;2022-11-04T01:16:25;10.52;;;4.62;;
64682;SDS011;51107;47.652;19.016;2022-11-04T01:18:59;9.63;;;4.43;;
64682;SDS011;51107;47.652;19.016;2022-11-04T01:21:27;10.70;;;4.50;;
64682;SDS011;51107;47.652;19.016;2022-11-04T01:23:55;11.18;;;4.55;;
64682;SDS011;51107;47.652;19.016;2022-11-04T01:26:24;10.93;;;5.37;;
64682;SDS011;51107;47.652;19.016;2022-11-04T01:28:54;9.35;;;4.60;;
64682;SDS011;51107;47.652;19.016;2022-11-04T01:31:27;6.75;;;4.00;;
64682;SDS011;51107;47.652;19.016;2022-11-04T01:33:57;12.23;;;4.37;;
64682;SDS011;51107;47.652;19.016;2022-11-04T01:36:25;7.05;;;4.53;;
64682;SDS011;51107;47.652;19.016;2022-11-04T01:38:55;8.68;;;4.82;;
64682;SDS011;51107;47.652;19.016;2022-11-04T01:41:28;9.65;;;4.05;;
64682;SDS011;51107;47.652;19.016;2022-11-04T01:46:38;10.70;;;4.65;;
64682;SDS011;51107;47.652;19.016;2022-11-04T01:52:15;16.02;;;4.35;;
64682;SDS011;51107;47.652;19.016;2022-11-04T01:54:50;5.60;;;4.25;;
64682;SDS011;51107;47.652;19.016;2022-11-04T01:57:27;8.32;;;4.03;;
64682;SDS011;51107;47.652;19.016;2022-11-04T02:00:03;8.27;;;4.72;;
64682;SDS011;51107;47.652;19.016;2022-11-04T02:02:41;7.03;;;4.00;;
64682;SDS011;51107;47.652;19.016;2022-11-04T02:05:29;8.25;;;4.47;;
64682;SDS011;51107;47.652;19.016;2022-11-04T02:08:00;5.07;;;3.50;;
64682;SDS011;51107;47.652;19.016;2022-11-04T02:10:31;12.15;;;4.47;;
64682;SDS011;51107;47.652;19.016;2022-11-04T02:13:00;11.10;;;5.10;;
64682;SDS011;51107;47.652;19.016;2022-11-04T02:20:57;6.93;;;4.18;;
64682;SDS011;51107;47.652;19.016;2022-11-04T02:24:41;9.40;;;4.22;;
64682;SDS011;51107;47.652;19.016;2022-11-04T02:46:39;7.93;;;3.78;;
64682;SDS011;51107;47.652;19.016;2022-11-04T02:49:23;9.07;;;4.40;;
64682;SDS011;51107;47.652;19.016;2022-11-04T02:52:04;8.70;;;4.00;;
64682;SDS011;51107;47.652;19.016;2022-11-04T02:54:49;6.50;;;4.00;;
64682;SDS011;51107;47.652;19.016;2022-11-04T02:57:24;17.67;;;4.70;;
64682;SDS011;51107;47.652;19.016;2022-11-04T03:00:01;13.20;;;4.47;;
64682;SDS011;51107;47.652;19.016;2022-11-04T03:02:41;13.77;;;5.15;;
64682;SDS011;51107;47.652;19.016;2022-11-04T03:05:21;12.18;;;5.93;;
64682;SDS011;51107;47.652;19.016;2022-11-04T03:07:54;11.97;;;5.10;;
64682;SDS011;51107;47.652;19.016;2022-11-04T03:10:40;8.25;;;4.43;;
64682;SDS011;51107;47.652;19.016;2022-11-04T03:15:50;14.80;;;5.30;;
64682;SDS011;51107;47.652;19.016;2022-11-04T03:18:32;11.23;;;4.43;;
64682;SDS011;51107;47.652;19.016;2022-11-04T03:21:14;7.65;;;3.75;;
64682;SDS011;51107;47.652;19.016;2022-11-04T03:23:43;14.98;;;4.75;;
64682;SDS011;51107;47.652;19.016;2022-11-04T03:31:40;10.32;;;5.18;;
64682;SDS011;51107;47.652;19.016;2022-11-04T03:34:14;11.90;;;5.65;;
64682;SDS011;51107;47.652;19.016;2022-11-04T03:36:42;14.73;;;6.78;;
64682;SDS011;51107;47.652;19.016;2022-11-04T03:39:10;17.25;;;6.12;;
64682;SDS011;51107;47.652;19.016;2022-11-04T03:41:43;14.23;;;5.80;;
64682;SDS011;51107;47.652;19.016;2022-11-04T03:44:16;9.50;;;4.87;;
64682;SDS011;51107;47.652;19.016;2022-11-04T03:46:45;11.20;;;5.03;;
64682;SDS011;51107;47.652;19.016;2022-11-04T03:49:13;10.93;;;4.65;;
64682;SDS011;51107;47.652;19.016;2022-11-04T03:51:41;10.63;;;4.72;;
64682;SDS011;51107;47.652;19.016;2022-11-04T03:54:10;9.65;;;4.78;;
64682;SDS011;51107;47.652;19.016;2022-11-04T04:02:19;6.28;;;3.67;;
64682;SDS011;51107;47.652;19.016;2022-11-04T04:04:58;13.85;;;5.12;;
64682;SDS011;51107;47.652;19.016;2022-11-04T04:10:12;7.15;;;4.45;;
64682;SDS011;51107;47.652;19.016;2022-11-04T04:13:21;9.90;;;5.18;;
64682;SDS011;51107;47.652;19.016;2022-11-04T04:16:00;10.48;;;5.00;;
64682;SDS011;51107;47.652;19.016;2022-11-04T04:18:35;12.90;;;5.55;;
64682;SDS011;51107;47.652;19.016;2022-11-04T04:21:27;11.80;;;6.25;;
64682;SDS011;51107;47.652;19.016;2022-11-04T04:24:01;7.57;;;4.80;;
64682;SDS011;51107;47.652;19.016;2022-11-04T04:26:51;10.52;;;5.50;;
64682;SDS011;51107;47.652;19.016;2022-11-04T04:29:41;7.22;;;4.82;;
64682;SDS011;51107;47.652;19.016;2022-11-04T04:32:12;9.40;;;4.22;;
64682;SDS011;51107;47.652;19.016;2022-11-04T04:34:41;11.23;;;4.90;;
64682;SDS011;51107;47.652;19.016;2022-11-04T04:39:53;12.52;;;5.47;;
64682;SDS011;51107;47.652;19.016;2022-11-04T04:42:51;8.10;;;4.35;;
64682;SDS011;51107;47.652;19.016;2022-11-04T04:45:39;11.75;;;4.93;;
64682;SDS011;51107;47.652;19.016;2022-11-04T04:48:11;8.15;;;5.32;;
64682;SDS011;51107;47.652;19.016;2022-11-04T04:50:44;13.55;;;4.72;;
64682;SDS011;51107;47.652;19.016;2022-11-04T04:53:15;14.38;;;5.85;;
64682;SDS011;51107;47.652;19.016;2022-11-04T04:55:44;8.45;;;5.37;;
64682;SDS011;51107;47.652;19.016;2022-11-04T04:58:12;6.97;;;4.55;;
64682;SDS011;51107;47.652;19.016;2022-11-04T05:00:40;7.70;;;4.07;;
64682;SDS011;51107;47.652;19.016;2022-11-04T05:03:08;7.65;;;5.68;;
64682;SDS011;51107;47.652;19.016;2022-11-04T05:05:37;9.85;;;4.32;;
64682;SDS011;51107;47.652;19.016;2022-11-04T05:08:07;9.52;;;4.20;;
64682;SDS011;51107;47.652;19.016;2022-11-04T05:10:36;8.45;;;4.25;;
64682;SDS011;51107;47.652;19.016;2022-11-04T05:13:04;6.43;;;4.18;;
64682;SDS011;51107;47.652;19.016;2022-11-04T05:15:52;7.07;;;4.28;;
64682;SDS011;51107;47.652;19.016;2022-11-04T05:18:20;7.65;;;4.82;;
64682;SDS011;51107;47.652;19.016;2022-11-04T05:20:48;11.45;;;5.53;;
64682;SDS011;51107;47.652;19.016;2022-11-04T05:23:16;8.80;;;5.12;;
64682;SDS011;51107;47.652;19.016;2022-11-04T05:25:45;8.38;;;4.75;;
64682;SDS011;51107;47.652;19.016;2022-11-04T05:28:13;7.80;;;4.72;;
64682;SDS011;51107;47.652;19.016;2022-11-04T05:30:41;8.45;;;3.87;;
64682;SDS011;51107;47.652;19.016;2022-11-04T05:33:10;11.85;;;6.10;;
64682;SDS011;51107;47.652;19.016;2022-11-04T05:35:39;9.68;;;5.47;;
64682;SDS011;51107;47.652;19.016;2022-11-04T05:38:08;11.63;;;5.93;;
64682;SDS011;51107;47.652;19.016;2022-11-04T05:40:36;15.43;;;6.15;;
64682;SDS011;51107;47.652;19.016;2022-11-04T05:43:04;17.20;;;6.18;;
64682;SDS011;51107;47.652;19.016;2022-11-04T05:45:33;14.07;;;6.22;;
64682;SDS011;51107;47.652;19.016;2022-11-04T05:48:02;12.98;;;6.45;;
64682;SDS011;51107;47.652;19.016;2022-11-04T05:50:32;15.98;;;5.50;;
64682;SDS011;51107;47.652;19.016;2022-11-04T05:53:01;12.37;;;5.93;;
64682;SDS011;51107;47.652;19.016;2022-11-04T05:55:29;13.68;;;7.55;;
64682;SDS011;51107;47.652;19.016;2022-11-04T05:57:57;11.80;;;5.93;;
64682;SDS011;51107;47.652;19.016;2022-11-04T06:00:26;10.30;;;5.47;;
64682;SDS011;51107;47.652;19.016;2022-11-04T06:02:55;15.35;;;6.32;;
64682;SDS011;51107;47.652;19.016;2022-11-04T06:05:24;12.95;;;5.82;;
64682;SDS011;51107;47.652;19.016;2022-11-04T06:07:53;12.98;;;6.18;;
64682;SDS011;51107;47.652;19.016;2022-11-04T06:10:22;9.43;;;5.03;;
64682;SDS011;51107;47.652;19.016;2022-11-04T06:12:51;10.68;;;5.25;;
64682;SDS011;51107;47.652;19.016;2022-11-04T06:15:19;13.32;;;5.57;;
64682;SDS011;51107;47.652;19.016;2022-11-04T06:17:48;13.77;;;5.62;;
64682;SDS011;51107;47.652;19.016;2022-11-04T06:20:16;11.93;;;5.30;;
64682;SDS011;51107;47.652;19.016;2022-11-04T06:22:44;8.68;;;5.87;;
64682;SDS011;51107;47.652;19.016;2022-11-04T06:25:12;9.65;;;5.70;;
64682;SDS011;51107;47.652;19.016;2022-11-04T06:27:41;8.82;;;5.57;;
64682;SDS011;51107;47.652;19.016;2022-11-04T06:30:09;9.40;;;5.20;;
64682;SDS011;51107;47.652;19.016;2022-11-04T06:32:38;11.05;;;5.82;;
64682;SDS011;51107;47.652;19.016;2022-11-04T06:35:06;11.40;;;5.78;;
64682;SDS011;51107;47.652;19.016;2022-11-04T06:37:35;8.13;;;4.47;;
64682;SDS011;51107;47.652;19.016;2022-11-04T06:40:05;7.57;;;5.05;;
64682;SDS011;51107;47.652;19.016;2022-11-04T06:42:33;14.82;;;5.87;;
64682;SDS011;51107;47.652;19.016;2022-11-04T06:45:01;7.85;;;5.07;;
64682;SDS011;51107;47.652;19.016;2022-11-04T06:47:31;12.13;;;5.87;;
64682;SDS011;51107;47.652;19.016;2022-11-04T06:49:59;11.98;;;6.18;;
64682;SDS011;51107;47.652;19.016;2022-11-04T06:52:27;14.60;;;6.37;;
64682;SDS011;51107;47.652;19.016;2022-11-04T06:54:55;16.58;;;5.65;;
64682;SDS011;51107;47.652;19.016;2022-11-04T06:57:23;14.13;;;5.50;;
64682;SDS011;51107;47.652;19.016;2022-11-04T06:59:53;13.20;;;7.03;;
64682;SDS011;51107;47.652;19.016;2022-11-04T07:02:22;9.52;;;4.80;;
64682;SDS011;51107;47.652;19.016;2022-11-04T07:04:50;12.90;;;5.65;;
64682;SDS011;51107;47.652;19.016;2022-11-04T07:07:19;9.50;;;5.22;;
64682;SDS011;51107;47.652;19.016;2022-11-04T07:09:47;16.00;;;4.87;;
64682;SDS011;51107;47.652;19.016;2022-11-04T07:12:15;12.13;;;5.97;;
64682;SDS011;51107;47.652;19.016;2022-11-04T07:14:43;12.98;;;6.40;;
64682;SDS011;51107;47.652;19.016;2022-11-04T07:17:12;10.77;;;5.32;;
64682;SDS011;51107;47.652;19.016;2022-11-04T07:19:40;14.55;;;6.10;;
64682;SDS011;51107;47.652;19.016;2022-11-04T07:22:08;12.37;;;6.47;;
64682;SDS011;51107;47.652;19.016;2022-11-04T07:24:36;10.60;;;5.68;;
64682;SDS011;51107;47.652;19.016;2022-11-04T07:27:04;9.57;;;5.00;;
64682;SDS011;51107;47.652;19.016;2022-11-04T07:29:34;13.52;;;5.95;;
64682;SDS011;51107;47.652;19.016;2022-11-04T07:32:04;10.50;;;5.37;;
64682;SDS011;51107;47.652;19.016;2022-11-04T07:34:32;8.68;;;4.68;;
64682;SDS011;51107;47.652;19.016;2022-11-04T07:37:00;9.05;;;5.15;;
64682;SDS011;51107;47.652;19.016;2022-11-04T07:39:29;15.85;;;6.53;;
64682;SDS011;51107;47.652;19.016;2022-11-04T07:41:57;11.68;;;5.55;;
64682;SDS011;51107;47.652;19.016;2022-11-04T07:44:26;11.52;;;6.37;;
64682;SDS011;51107;47.652;19.016;2022-11-04T07:46:55;15.13;;;6.65;;
64682;SDS011;51107;47.652;19.016;2022-11-04T07:49:23;14.65;;;6.55;;
64682;SDS011;51107;47.652;19.016;2022-11-04T07:51:52;13.48;;;6.00;;
64682;SDS011;51107;47.652;19.016;2022-11-04T07:54:21;15.15;;;5.10;;
64682;SDS011;51107;47.652;19.016;2022-11-04T07:56:49;20.33;;;6.45;;
64682;SDS011;51107;47.652;19.016;2022-11-04T07:59:17;12.18;;;6.12;;
64682;SDS011;51107;47.652;19.016;2022-11-04T08:01:46;14.10;;;6.30;;
64682;SDS011;51107;47.652;19.016;2022-11-04T08:04:14;6.93;;;5.37;;
64682;SDS011;51107;47.652;19.016;2022-11-04T08:06:42;14.63;;;6.12;;
64682;SDS011;51107;47.652;19.016;2022-11-04T08:09:11;13.98;;;6.65;;
64682;SDS011;51107;47.652;19.016;2022-11-04T08:11:39;13.75;;;6.43;;
64682;SDS011;51107;47.652;19.016;2022-11-04T08:14:07;24.48;;;6.62;;
64682;SDS011;51107;47.652;19.016;2022-11-04T08:16:36;10.05;;;6.37;;
64682;SDS011;51107;47.652;19.016;2022-11-04T08:19:05;13.65;;;5.45;;
64682;SDS011;51107;47.652;19.016;2022-11-04T08:21:33;9.20;;;5.45;;
64682;SDS011;51107;47.652;19.016;2022-11-04T08:24:01;13.20;;;5.85;;
64682;SDS011;51107;47.652;19.016;2022-11-04T08:26:31;10.73;;;5.70;;
64682;SDS011;51107;47.652;19.016;2022-11-04T08:28:59;10.63;;;6.05;;
64682;SDS011;51107;47.652;19.016;2022-11-04T08:31:30;13.55;;;6.47;;
64682;SDS011;51107;47.652;19.016;2022-11-04T08:33:58;18.33;;;5.93;;
64682;SDS011;51107;47.652;19.016;2022-11-04T08:36:29;9.38;;;5.93;;
64682;SDS011;51107;47.652;19.016;2022-11-04T08:38:59;12.23;;;6.50;;
64682;SDS011;51107;47.652;19.016;2022-11-04T08:41:36;9.00;;;6.30;;
64682;SDS011;51107;47.652;19.016;2022-11-04T08:44:08;17.25;;;6.20;;
64682;SDS011;51107;47.652;19.016;2022-11-04T08:46:38;14.68;;;6.75;;
64682;SDS011;51107;47.652;19.016;2022-11-04T08:49:06;10.38;;;5.68;;
64682;SDS011;51107;47.652;19.016;2022-11-04T08:51:41;14.73;;;6.25;;
64682;SDS011;51107;47.652;19.016;2022-11-04T08:54:11;9.63;;;5.75;;
64682;SDS011;51107;47.652;19.016;2022-11-04T08:56:40;9.38;;;5.45;;
64682;SDS011;51107;47.652;19.016;2022-11-04T08:59:08;14.25;;;6.75;;
64682;SDS011;51107;47.652;19.016;2022-11-04T09:01:37;12.35;;;6.28;;
64682;SDS011;51107;47.652;19.016;2022-11-04T09:04:06;10.75;;;6.12;;
64682;SDS011;51107;47.652;19.016;2022-11-04T09:06:36;9.57;;;5.90;;
64682;SDS011;51107;47.652;19.016;2022-11-04T09:09:07;13.95;;;6.93;;
64682;SDS011;51107;47.652;19.016;2022-11-04T09:11:39;12.27;;;7.28;;
64682;SDS011;51107;47.652;19.016;2022-11-04T09:14:08;8.55;;;5.32;;
64682;SDS011;51107;47.652;19.016;2022-11-04T09:16:38;10.50;;;5.40;;
64682;SDS011;51107;47.652;19.016;2022-11-04T09:19:07;10.82;;;5.28;;
64682;SDS011;51107;47.652;19.016;2022-11-04T09:21:36;12.25;;;5.93;;
64682;SDS011;51107;47.652;19.016;2022-11-04T09:24:04;8.65;;;5.55;;
64682;SDS011;51107;47.652;19.016;2022-11-04T09:26:34;9.52;;;5.57;;
64682;SDS011;51107;47.652;19.016;2022-11-04T09:29:03;11.85;;;6.57;;
64682;SDS011;51107;47.652;19.016;2022-11-04T09:31:33;9.50;;;5.55;;
64682;SDS011;51107;47.652;19.016;2022-11-04T09:34:01;10.18;;;5.72;;
64682;SDS011;51107;47.652;19.016;2022-11-04T09:36:30;12.48;;;7.25;;
64682;SDS011;51107;47.652;19.016;2022-11-04T09:38:58;14.45;;;7.57;;
64682;SDS011;51107;47.652;19.016;2022-11-04T09:44:35;9.80;;;6.10;;
64682;SDS011;51107;47.652;19.016;2022-11-04T09:47:39;11.75;;;6.80;;
64682;SDS011;51107;47.652;19.016;2022-11-04T09:50:14;16.02;;;7.03;;
64682;SDS011;51107;47.652;19.016;2022-11-04T09:52:49;12.13;;;5.68;;
64682;SDS011;51107;47.652;19.016;2022-11-04T09:58:24;13.93;;;6.47;;
64682;SDS011;51107;47.652;19.016;2022-11-04T10:00:58;15.20;;;6.60;;
64682;SDS011;51107;47.652;19.016;2022-11-04T10:03:42;12.90;;;7.22;;
64682;SDS011;51107;47.652;19.016;2022-11-04T10:12:34;13.00;;;7.25;;
64682;SDS011;51107;47.652;19.016;2022-11-04T10:32:05;16.98;;;6.65;;
64682;SDS011;51107;47.652;19.016;2022-11-04T10:37:24;13.80;;;6.23;;
64682;SDS011;51107;47.652;19.016;2022-11-04T10:39:57;9.98;;;6.15;;
64682;SDS011;51107;47.652;19.016;2022-11-04T10:42:42;10.63;;;6.50;;
64682;SDS011;51107;47.652;19.016;2022-11-04T10:45:11;10.85;;;5.75;;
64682;SDS011;51107;47.652;19.016;2022-11-04T10:47:49;12.30;;;6.35;;
64682;SDS011;51107;47.652;19.016;2022-11-04T10:53:40;14.43;;;6.78;;
64682;SDS011;51107;47.652;19.016;2022-11-04T10:58:44;12.48;;;7.10;;
64682;SDS011;51107;47.652;19.016;2022-11-04T11:01:22;15.30;;;7.12;;
64682;SDS011;51107;47.652;19.016;2022-11-04T11:03:52;11.20;;;6.22;;
64682;SDS011;51107;47.652;19.016;2022-11-04T11:08:53;12.70;;;6.22;;
64682;SDS011;51107;47.652;19.016;2022-11-04T11:15:48;13.68;;;7.53;;
64682;SDS011;51107;47.652;19.016;2022-11-04T11:17:58;12.23;;;5.90;;
64682;SDS011;51107;47.652;19.016;2022-11-04T11:27:08;11.60;;;7.35;;
64682;SDS011;51107;47.652;19.016;2022-11-04T11:33:15;10.70;;;5.87;;
64682;SDS011;51107;47.652;19.016;2022-11-04T11:38:51;12.65;;;8.30;;
64682;SDS011;51107;47.652;19.016;2022-11-04T11:45:01;13.93;;;8.18;;
64682;SDS011;51107;47.652;19.016;2022-11-04T11:50:52;15.68;;;7.25;;
64682;SDS011;51107;47.652;19.016;2022-11-04T11:56:35;22.90;;;7.68;;
64682;SDS011;51107;47.652;19.016;2022-11-04T12:20:23;14.50;;;6.93;;
64682;SDS011;51107;47.652;19.016;2022-11-04T12:37:13;14.55;;;7.35;;
64682;SDS011;51107;47.652;19.016;2022-11-04T12:39:52;14.60;;;6.93;;
64682;SDS011;51107;47.652;19.016;2022-11-04T12:48:52;12.95;;;7.60;;
64682;SDS011;51107;47.652;19.016;2022-11-04T13:05:43;13.30;;;7.20;;
64682;SDS011;51107;47.652;19.016;2022-11-04T13:11:20;11.98;;;7.05;;
64682;SDS011;51107;47.652;19.016;2022-11-04T13:13:51;12.30;;;7.43;;
64682;SDS011;51107;47.652;19.016;2022-11-04T13:16:29;11.02;;;6.60;;
64682;SDS011;51107;47.652;19.016;2022-11-04T13:19:01;11.12;;;6.72;;
64682;SDS011;51107;47.652;19.016;2022-11-04T13:21:31;16.60;;;6.43;;
64682;SDS011;51107;47.652;19.016;2022-11-04T13:24:05;11.88;;;6.85;;
64682;SDS011;51107;47.652;19.016;2022-11-04T13:26:58;15.40;;;7.65;;
64682;SDS011;51107;47.652;19.016;2022-11-04T13:29:30;12.35;;;6.07;;
64682;SDS011;51107;47.652;19.016;2022-11-04T13:32:06;15.20;;;6.90;;
64682;SDS011;51107;47.652;19.016;2022-11-04T13:37:26;20.00;;;9.35;;
64682;SDS011;51107;47.652;19.016;2022-11-04T13:40:05;22.25;;;11.63;;
64682;SDS011;51107;47.652;19.016;2022-11-04T13:48:50;27.75;;;10.80;;
64682;SDS011;51107;47.652;19.016;2022-11-04T13:51:37;20.58;;;7.97;;
64682;SDS011;51107;47.652;19.016;2022-11-04T13:59:33;17.12;;;8.50;;
64682;SDS011;51107;47.652;19.016;2022-11-04T14:04:39;13.18;;;8.07;;
64682;SDS011;51107;47.652;19.016;2022-11-04T14:07:10;15.30;;;7.90;;
64682;SDS011;51107;47.652;19.016;2022-11-04T14:14:40;13.07;;;6.20;;
64682;SDS011;51107;47.652;19.016;2022-11-04T14:20:00;15.52;;;7.25;;
64682;SDS011;51107;47.652;19.016;2022-11-04T14:22:50;15.27;;;6.65;;
64682;SDS011;51107;47.652;19.016;2022-11-04T14:25:25;18.95;;;7.18;;
64682;SDS011;51107;47.652;19.016;2022-11-04T14:28:00;11.95;;;7.37;;
64682;SDS011;51107;47.652;19.016;2022-11-04T14:30:42;10.80;;;6.82;;
64682;SDS011;51107;47.652;19.016;2022-11-04T14:33:20;13.50;;;7.47;;
64682;SDS011;51107;47.652;19.016;2022-11-04T14:35:50;10.40;;;5.78;;
64682;SDS011;51107;47.652;19.016;2022-11-04T14:42:02;16.58;;;6.72;;
64682;SDS011;51107;47.652;19.016;2022-11-04T14:46:54;12.65;;;6.20;;
64682;SDS011;51107;47.652;19.016;2022-11-04T14:52:37;13.80;;;6.95;;
64682;SDS011;51107;47.652;19.016;2022-11-04T14:55:17;13.23;;;6.22;;
64682;SDS011;51107;47.652;19.016;2022-11-04T14:58:12;9.93;;;4.97;;
64682;SDS011;51107;47.652;19.016;2022-11-04T15:06:11;11.90;;;6.72;;
64682;SDS011;51107;47.652;19.016;2022-11-04T15:13:45;10.38;;;6.87;;
64682;SDS011;51107;47.652;19.016;2022-11-04T15:16:16;10.18;;;5.87;;
64682;SDS011;51107;47.652;19.016;2022-11-04T15:18:48;10.07;;;6.72;;
64682;SDS011;51107;47.652;19.016;2022-11-04T15:21:18;17.42;;;7.47;;
64682;SDS011;51107;47.652;19.016;2022-11-04T15:23:55;15.60;;;8.63;;
64682;SDS011;51107;47.652;19.016;2022-11-04T15:26:28;12.32;;;7.20;;
64682;SDS011;51107;47.652;19.016;2022-11-04T15:28:59;17.17;;;9.60;;
64682;SDS011;51107;47.652;19.016;2022-11-04T15:31:34;12.23;;;6.57;;
64682;SDS011;51107;47.652;19.016;2022-11-04T15:34:04;14.27;;;7.75;;
64682;SDS011;51107;47.652;19.016;2022-11-04T15:36:40;15.15;;;7.47;;
64682;SDS011;51107;47.652;19.016;2022-11-04T15:39:11;13.02;;;6.55;;
64682;SDS011;51107;47.652;19.016;2022-11-04T15:41:44;13.90;;;7.10;;
64682;SDS011;51107;47.652;19.016;2022-11-04T15:44:33;18.62;;;9.23;;
64682;SDS011;51107;47.652;19.016;2022-11-04T15:50:13;38.85;;;17.98;;
64682;SDS011;51107;47.652;19.016;2022-11-04T15:52:50;22.25;;;10.60;;
64682;SDS011;51107;47.652;19.016;2022-11-04T15:55:22;18.75;;;8.45;;
64682;SDS011;51107;47.652;19.016;2022-11-04T15:57:54;19.45;;;9.00;;
64682;SDS011;51107;47.652;19.016;2022-11-04T16:00:23;16.30;;;8.98;;
64682;SDS011;51107;47.652;19.016;2022-11-04T16:02:54;15.73;;;9.38;;
64682;SDS011;51107;47.652;19.016;2022-11-04T16:05:32;14.80;;;7.87;;
64682;SDS011;51107;47.652;19.016;2022-11-04T16:10:49;11.23;;;6.30;;
64682;SDS011;51107;47.652;19.016;2022-11-04T16:13:34;12.25;;;7.18;;
64682;SDS011;51107;47.652;19.016;2022-11-04T16:21:27;11.18;;;6.82;;
64682;SDS011;51107;47.652;19.016;2022-11-04T16:24:06;15.50;;;9.60;;
64682;SDS011;51107;47.652;19.016;2022-11-04T16:26:44;14.75;;;8.13;;
64682;SDS011;51107;47.652;19.016;2022-11-04T16:29:16;17.98;;;8.32;;
64682;SDS011;51107;47.652;19.016;2022-11-04T16:34:35;16.35;;;7.68;;
64682;SDS011;51107;47.652;19.016;2022-11-04T16:37:04;22.25;;;11.00;;
64682;SDS011;51107;47.652;19.016;2022-11-04T16:39:32;24.48;;;10.73;;
64682;SDS011;51107;47.652;19.016;2022-11-04T16:42:01;13.32;;;7.28;;
64682;SDS011;51107;47.652;19.016;2022-11-04T16:44:30;21.77;;;7.15;;
64682;SDS011;51107;47.652;19.016;2022-11-04T16:46:59;12.23;;;6.72;;
64682;SDS011;51107;47.652;19.016;2022-11-04T16:49:28;14.32;;;6.20;;
64682;SDS011;51107;47.652;19.016;2022-11-04T16:52:00;11.27;;;6.00;;
64682;SDS011;51107;47.652;19.016;2022-11-04T16:54:30;11.48;;;6.62;;
64682;SDS011;51107;47.652;19.016;2022-11-04T16:56:58;16.17;;;6.97;;
64682;SDS011;51107;47.652;19.016;2022-11-04T16:59:27;12.95;;;7.37;;
64682;SDS011;51107;47.652;19.016;2022-11-04T17:01:55;15.07;;;7.97;;
64682;SDS011;51107;47.652;19.016;2022-11-04T17:04:24;10.93;;;6.68;;
64682;SDS011;51107;47.652;19.016;2022-11-04T17:06:52;21.67;;;7.30;;
64682;SDS011;51107;47.652;19.016;2022-11-04T17:09:21;12.85;;;6.68;;
64682;SDS011;51107;47.652;19.016;2022-11-04T17:11:49;14.80;;;7.05;;
64682;SDS011;51107;47.652;19.016;2022-11-04T17:14:18;14.10;;;5.65;;
64682;SDS011;51107;47.652;19.016;2022-11-04T17:16:47;19.08;;;6.68;;
64682;SDS011;51107;47.652;19.016;2022-11-04T17:19:15;12.45;;;6.28;;
64682;SDS011;51107;47.652;19.016;2022-11-04T17:21:43;9.43;;;5.80;;
64682;SDS011;51107;47.652;19.016;2022-11-04T17:24:12;12.37;;;5.72;;
64682;SDS011;51107;47.652;19.016;2022-11-04T17:26:41;15.27;;;6.70;;
64682;SDS011;51107;47.652;19.016;2022-11-04T17:29:10;10.57;;;5.85;;
64682;SDS011;51107;47.652;19.016;2022-11-04T17:31:44;10.20;;;5.93;;
64682;SDS011;51107;47.652;19.016;2022-11-04T17:34:12;14.77;;;6.47;;
64682;SDS011;51107;47.652;19.016;2022-11-04T17:36:41;11.40;;;6.43;;
64682;SDS011;51107;47.652;19.016;2022-11-04T17:39:10;12.10;;;6.60;;
64682;SDS011;51107;47.652;19.016;2022-11-04T17:41:38;13.73;;;6.78;;
64682;SDS011;51107;47.652;19.016;2022-11-04T17:44:25;18.42;;;9.98;;
64682;SDS011;51107;47.652;19.016;2022-11-04T17:46:54;19.87;;;11.45;;
64682;SDS011;51107;47.652;19.016;2022-11-04T17:49:23;26.30;;;10.40;;
64682;SDS011;51107;47.652;19.016;2022-11-04T17:51:53;12.82;;;7.53;;
64682;SDS011;51107;47.652;19.016;2022-11-04T17:54:23;15.35;;;7.40;;
64682;SDS011;51107;47.652;19.016;2022-11-04T17:56:54;12.32;;;6.43;;
64682;SDS011;51107;47.652;19.016;2022-11-04T17:59:22;11.25;;;5.53;;
64682;SDS011;51107;47.652;19.016;2022-11-04T18:01:51;12.07;;;5.45;;
64682;SDS011;51107;47.652;19.016;2022-11-04T18:04:21;12.60;;;5.80;;
64682;SDS011;51107;47.652;19.016;2022-11-04T18:06:50;10.85;;;5.10;;
64682;SDS011;51107;47.652;19.016;2022-11-04T18:09:18;10.93;;;6.07;;
64682;SDS011;51107;47.652;19.016;2022-11-04T18:11:47;16.00;;;7.15;;
64682;SDS011;51107;47.652;19.016;2022-11-04T18:14:34;9.45;;;5.43;;
64682;SDS011;51107;47.652;19.016;2022-11-04T18:17:03;9.80;;;5.97;;
64682;SDS011;51107;47.652;19.016;2022-11-04T18:19:32;13.05;;;6.90;;
64682;SDS011;51107;47.652;19.016;2022-11-04T18:22:00;11.77;;;5.93;;
64682;SDS011;51107;47.652;19.016;2022-11-04T18:24:29;9.77;;;6.10;;
64682;SDS011;51107;47.652;19.016;2022-11-04T18:26:58;10.98;;;6.05;;
64682;SDS011;51107;47.652;19.016;2022-11-04T18:29:27;14.55;;;5.65;;
64682;SDS011;51107;47.652;19.016;2022-11-04T18:31:56;12.68;;;7.18;;
64682;SDS011;51107;47.652;19.016;2022-11-04T18:34:24;9.85;;;6.20;;
64682;SDS011;51107;47.652;19.016;2022-11-04T18:36:53;15.10;;;8.90;;
64682;SDS011;51107;47.652;19.016;2022-11-04T18:39:23;15.35;;;8.60;;
64682;SDS011;51107;47.652;19.016;2022-11-04T18:41:51;13.38;;;7.25;;
64682;SDS011;51107;47.652;19.016;2022-11-04T18:44:21;18.42;;;9.27;;
64682;SDS011;51107;47.652;19.016;2022-11-04T18:46:50;15.88;;;8.48;;
64682;SDS011;51107;47.652;19.016;2022-11-04T18:49:18;16.40;;;9.35;;
64682;SDS011;51107;47.652;19.016;2022-11-04T18:51:47;26.55;;;9.85;;
64682;SDS011;51107;47.652;19.016;2022-11-04T18:54:16;17.62;;;9.32;;